Home   Weather   Russia   Murmansk   Past weeks
Flag for Russia

Past Weather in Murmansk, Russia — Yesterday and Last 2 Weeks

Currently: 72 °F. Sunny. (Weather station: Murmansk Airport, Russia). See more current weather

Past Weather in Murmansk — Graph

°F

Murmansk Temperature Yesterday

Maximum temperature yesterday: 61 °F (at 4:00 pm)
Minimum temperature yesterday: 45 °F (at 11:30 pm)
Average temperature yesterday: 54 °F

High & Low Weather Summary for the Past Weeks

 TemperatureHumidityPressure
High75 °F (Jul 5, 1:00 pm)100% (Jun 30, 3:30 am)30.30 "Hg (Jun 30, 3:30 am)
Low37 °F (Jul 14, 2:30 am)40% (Jul 11, 12:30 pm)29.27 "Hg (Jul 2, 10:00 pm)
Average58 °F81%29.72 "Hg
* Reported Jun 29 7:07 pm — Jul 14 7:00 pm, Murmansk. Weather by CustomWeather, © 2024

Note: Actual official high and low records may vary slightly from our data, if they occured in-between our weather recording intervals... More about our weather records

Murmansk Weather History for the Previous 24 Hours

Scroll right to see more
 ConditionsComfort  
Time TempWeatherWind HumidityBarometerVisibility
7:00 pm
Sun, Jul 14
72 °FSunny.6 mph44%30.01 "Hg10 mi
6:30 pm72 °FPassing clouds.3 mph44%30.01 "HgN/A
6:00 pm72 °FSunny.6 mph44%30.01 "Hg10 mi
5:30 pm72 °FSunny.6 mph44%30.01 "Hg10 mi
5:00 pm72 °FPassing clouds.6 mph44%30.01 "HgN/A
4:30 pm72 °FPassing clouds.6 mph44%30.01 "HgN/A
3:30 pm70 °FSunny.3 mph46%30.04 "Hg10 mi
3:00 pm70 °FPassing clouds.3 mph50%30.04 "HgN/A
2:30 pm68 °FPassing clouds.6 mph46%30.04 "HgN/A
2:00 pm68 °FPassing clouds.3 mph46%30.04 "HgN/A
1:30 pm68 °FScattered clouds.3 mph46%30.04 "HgN/A
1:00 pm66 °FPassing clouds.3 mph52%30.04 "HgN/A
12:30 pm66 °FScattered clouds.3 mph52%30.04 "HgN/A
12:00 pm66 °FSunny.1 mph52%30.07 "Hg10 mi
11:30 am64 °FPassing clouds.3 mph56%30.07 "HgN/A
11:00 am64 °FPassing clouds.3 mph56%30.07 "HgN/A
10:30 am63 °FPassing clouds.3 mph59%30.07 "HgN/A
10:00 am63 °FPassing clouds.6 mph56%30.07 "HgN/A
9:30 am61 °FSunny.1 mph59%30.09 "Hg10 mi
9:00 am59 °FPassing clouds.3 mph68%30.09 "HgN/A
8:30 am59 °FPassing clouds.3 mph68%30.09 "HgN/A
8:00 am55 °FPassing clouds.3 mph77%30.09 "HgN/A
7:30 am54 °FSunny.3 mph82%30.09 "Hg10 mi
7:00 am52 °FSunny.6 mph88%30.12 "Hg10 mi
6:30 am50 °FSunny.3 mph88%30.12 "Hg10 mi
6:00 am48 °FSunny.3 mph94%30.12 "Hg10 mi
5:30 am46 °FSunny.1 mph100%30.12 "Hg10 mi
5:00 am45 °FSunny.1 mph100%30.12 "Hg10 mi
4:30 am41 °FSunny.1 mph100%30.12 "Hg10 mi
3:30 am39 °FSunny.3 mph100%30.12 "Hg10 mi
3:00 am37 °FSunny.No wind100%30.12 "Hg10 mi
2:30 am37 °FClear.3 mph100%30.12 "Hg6 mi
2:00 am39 °FSunny.3 mph100%30.12 "Hg10 mi
1:30 am39 °FClear.3 mph100%30.12 "Hg6 mi
1:00 am41 °FSunny.1 mph100%30.12 "Hg10 mi
12:30 am43 °FSunny.1 mph100%30.12 "Hg10 mi
12:00 am43 °FSunny.1 mph100%30.09 "Hg10 mi
11:30 pm
Sat, Jul 13
45 °FSunny.1 mph100%30.09 "Hg10 mi
11:00 pm48 °FSunny.3 mph94%30.09 "Hg10 mi
10:30 pm50 °FSunny.3 mph88%30.09 "Hg10 mi
10:00 pm52 °FSunny.3 mph82%30.09 "Hg10 mi
9:30 pm54 °FSunny.3 mph82%30.09 "Hg10 mi
9:00 pm55 °FSunny.6 mph77%30.09 "Hg10 mi
8:30 pm57 °FSunny.6 mph77%30.09 "Hg10 mi
8:00 pm57 °FSunny.6 mph72%30.09 "Hg10 mi
Weather by CustomWeather, © 2024

See weather overview